createdAt,value
2023-05-09T00:02:13.871Z,98.01
2023-05-09T00:05:00.792Z,99.86
2023-05-09T00:07:40.790Z,98.92
2023-05-09T00:10:27.786Z,99.44
2023-05-09T00:13:08.151Z,98.21
2023-05-09T00:15:54.865Z,97.04
2023-05-09T00:18:36.727Z,97.67
2023-05-09T00:21:23.721Z,97.14
2023-05-09T00:24:10.719Z,95.61
2023-05-09T00:26:57.721Z,97.21
2023-05-09T00:29:38.843Z,97.17
2023-05-09T00:32:25.743Z,96.12
2023-05-09T00:35:12.915Z,95.96
2023-05-09T00:37:59.759Z,95.65
2023-05-09T00:40:39.752Z,97.13
2023-05-09T00:43:27.677Z,98.59
2023-05-09T00:46:07.821Z,96.32
2023-05-09T00:48:54.677Z,96.60
2023-05-09T00:51:42.678Z,97.14
2023-05-09T00:54:29.667Z,98.23
2023-05-09T00:57:16.729Z,99.37
2023-05-09T01:00:03.704Z,99.02
2023-05-09T01:02:43.915Z,98.40
2023-05-09T01:05:39.619Z,98.20
2023-05-09T01:08:40.782Z,98.28
2023-05-09T01:11:39.653Z,97.01
2023-05-09T01:14:43.629Z,96.79
2023-05-09T01:17:45.346Z,95.56
2023-05-09T01:21:05.631Z,94.25
2023-05-09T01:24:20.289Z,94.01
2023-05-09T01:27:17.771Z,92.49
2023-05-09T01:29:59.710Z,92.51
2023-05-09T01:32:51.710Z,92.53
2023-05-09T01:35:35.360Z,92.09
2023-05-09T01:38:26.652Z,91.83
2023-05-09T01:41:23.597Z,91.33
2023-05-09T01:44:14.688Z,92.57
2023-05-09T01:46:55.820Z,90.66
2023-05-09T01:49:44.589Z,91.44
2023-05-09T01:52:33.593Z,92.64
2023-05-09T01:55:16.143Z,92.27
2023-05-09T01:58:03.609Z,92.32
2023-05-09T02:00:51.870Z,93.65
2023-05-09T02:03:32.644Z,94.36
2023-05-09T02:06:15.004Z,93.64
2023-05-09T02:09:03.656Z,93.94
2023-05-09T02:11:50.718Z,94.33
2023-05-09T02:14:30.555Z,95.32
2023-05-09T02:17:11.482Z,95.01
2023-05-09T02:19:58.602Z,95.73
2023-05-09T02:22:48.594Z,95.57
2023-05-09T02:25:35.542Z,95.70
2023-05-09T02:28:25.587Z,96.40
2023-05-09T02:31:08.592Z,96.84
2023-05-09T02:33:57.596Z,97.73
2023-05-09T02:36:39.123Z,96.21
2023-05-09T02:39:25.575Z,97.15
2023-05-09T02:42:17.542Z,97.60
2023-05-09T02:45:07.510Z,98.04
2023-05-09T02:47:47.952Z,98.36
2023-05-09T02:50:35.502Z,98.60
2023-05-09T02:53:16.045Z,99.32
2023-05-09T02:56:02.551Z,98.29
2023-05-09T02:58:42.909Z,99.01
2023-05-09T03:01:29.524Z,98.59
2023-05-09T03:04:09.911Z,97.32
2023-05-09T03:06:56.506Z,97.54
2023-05-09T03:09:46.480Z,98.14
2023-05-09T03:12:33.509Z,97.22
2023-05-09T03:15:14.244Z,97.34
2023-05-09T03:18:01.585Z,96.55
2023-05-09T03:20:41.965Z,96.77
2023-05-09T03:23:28.499Z,95.90
2023-05-09T03:26:08.884Z,97.00
2023-05-09T03:28:55.511Z,96.97
2023-05-09T03:31:42.514Z,97.05
2023-05-09T03:34:22.634Z,96.80
2023-05-09T03:37:09.459Z,95.87
2023-05-09T03:39:50.595Z,96.00
2023-05-09T03:42:37.536Z,96.32
2023-05-09T03:45:24.485Z,96.00
2023-05-09T03:48:15.427Z,96.73
2023-05-09T03:51:04.441Z,96.10
2023-05-09T03:53:47.392Z,96.04
2023-05-09T03:56:35.430Z,97.02
2023-05-09T03:59:22.487Z,95.91
2023-05-09T04:02:09.464Z,95.66
2023-05-09T04:04:57.585Z,95.77
2023-05-09T04:07:37.402Z,96.31
2023-05-09T04:10:17.945Z,96.02
2023-05-09T04:13:05.452Z,95.37
2023-05-09T04:15:52.436Z,95.23
2023-05-09T04:18:43.420Z,95.03
2023-05-09T04:21:23.799Z,95.58
2023-05-09T04:24:13.378Z,95.54
2023-05-09T04:27:01.367Z,94.64
2023-05-09T04:29:42.505Z,95.23
2023-05-09T04:32:29.452Z,95.30
2023-05-09T04:35:09.525Z,95.16
2023-05-09T04:37:59.374Z,94.27
2023-05-09T04:40:54.379Z,94.58
2023-05-09T04:43:34.695Z,94.71
2023-05-09T04:46:23.093Z,94.61
2023-05-09T04:49:11.390Z,94.13
2023-05-09T04:51:58.386Z,93.99
2023-05-09T04:54:38.738Z,93.07
2023-05-09T04:57:26.320Z,93.29
2023-05-09T05:00:08.278Z,91.62
2023-05-09T05:02:55.406Z,90.81
2023-05-09T05:05:43.489Z,90.73
2023-05-09T05:08:23.430Z,89.13
2023-05-09T05:11:10.373Z,87.90
2023-05-09T05:13:51.423Z,86.52
2023-05-09T05:16:38.403Z,85.75
2023-05-09T05:19:18.461Z,84.64
2023-05-09T05:22:05.308Z,84.74
2023-05-09T05:24:48.425Z,84.29
2023-05-09T05:27:35.299Z,84.01
2023-05-09T05:30:18.461Z,84.00
2023-05-09T05:33:05.340Z,82.97
2023-05-09T05:35:52.314Z,83.05
2023-05-09T05:38:39.419Z,81.90
2023-05-09T05:41:26.274Z,81.58
2023-05-09T05:44:07.360Z,80.28
2023-05-09T05:46:54.275Z,79.19
2023-05-09T05:49:41.286Z,76.92
2023-05-09T05:52:21.643Z,73.37
2023-05-09T05:55:09.284Z,74.08
2023-05-09T05:57:49.647Z,73.66
2023-05-09T06:00:36.320Z,74.82
2023-05-09T06:03:24.379Z,75.24
2023-05-09T06:06:08.321Z,74.21
2023-05-09T06:08:58.256Z,72.54
2023-05-09T06:11:39.199Z,73.61
2023-05-09T06:14:26.272Z,72.85
2023-05-09T06:17:07.377Z,72.02
2023-05-09T06:19:54.278Z,72.33
2023-05-09T06:22:41.239Z,72.60
2023-05-09T06:25:21.667Z,71.40
2023-05-09T06:28:08.250Z,68.20
2023-05-09T06:30:55.293Z,68.16
2023-05-09T06:33:35.418Z,69.22
2023-05-09T06:36:22.258Z,70.08
2023-05-09T06:39:02.346Z,70.04
2023-05-09T06:41:49.218Z,72.39
2023-05-09T06:44:37.352Z,72.48
2023-05-09T06:47:24.276Z,74.41
2023-05-09T06:50:04.267Z,74.81
2023-05-09T06:52:51.241Z,74.47
2023-05-09T06:55:38.251Z,75.13
2023-05-09T06:58:18.576Z,75.24
2023-05-09T07:01:05.240Z,74.61
2023-05-09T07:03:54.226Z,73.51
2023-05-09T07:06:34.291Z,66.92
2023-05-09T07:09:24.214Z,65.10
2023-05-09T07:12:04.519Z,62.93
2023-05-09T07:14:51.168Z,61.68
2023-05-09T07:17:31.297Z,63.71
2023-05-09T07:20:18.220Z,63.54
2023-05-09T07:23:05.140Z,65.52
2023-05-09T07:40:12.427Z,78.02
2023-05-09T07:42:55.166Z,78.86
2023-05-09T07:45:42.296Z,79.50
2023-05-09T07:48:29.219Z,78.94
2023-05-09T07:51:16.242Z,78.23
2023-05-09T07:54:03.309Z,77.55
2023-05-09T07:56:43.244Z,75.58
2023-05-09T07:59:30.192Z,75.10
2023-05-09T08:02:10.407Z,75.46
2023-05-09T08:04:57.240Z,74.02
2023-05-09T08:07:37.266Z,73.56
2023-05-09T08:10:24.259Z,73.25
2023-05-09T08:13:04.329Z,71.68
2023-05-09T08:15:51.276Z,69.79
2023-05-09T08:18:31.783Z,68.39
2023-05-09T08:21:19.675Z,68.34
2023-05-09T08:24:01.915Z,67.28
2023-05-09T08:26:42.205Z,66.36
2023-05-09T08:29:29.880Z,65.88
2023-05-09T08:32:10.371Z,65.53
2023-05-09T08:34:50.940Z,68.22
2023-05-09T08:37:38.111Z,69.52
2023-05-09T08:40:26.347Z,71.00
2023-05-09T08:43:06.136Z,70.69
2023-05-09T08:46:15.169Z,68.85
2023-05-09T08:48:55.329Z,66.88
2023-05-09T08:51:43.126Z,66.46
2023-05-09T08:54:24.271Z,65.48
2023-05-09T08:57:11.157Z,63.32
2023-05-09T08:59:51.549Z,61.08
2023-05-09T09:02:40.167Z,59.35
2023-05-09T09:05:40.298Z,61.67
2023-05-09T09:08:29.145Z,60.00
2023-05-09T09:11:10.187Z,60.84
2023-05-09T09:14:00.134Z,62.61
2023-05-09T09:16:43.456Z,62.84
2023-05-09T09:19:24.157Z,64.09
2023-05-09T09:22:05.055Z,67.19
2023-05-09T09:24:52.119Z,69.87
2023-05-09T09:27:39.113Z,72.89
2023-05-09T09:30:19.229Z,73.75
2023-05-09T09:33:07.195Z,74.82
2023-05-09T09:35:55.157Z,75.17
2023-05-09T09:38:54.066Z,76.14
2023-05-09T09:41:43.121Z,76.39
2023-05-09T09:44:29.435Z,75.36
2023-05-09T09:47:17.072Z,74.38
2023-05-09T09:50:04.217Z,73.81
2023-05-09T09:53:04.037Z,74.02
2023-05-09T09:55:51.035Z,75.77
2023-05-09T09:58:38.118Z,75.28
2023-05-09T10:01:20.836Z,75.74
2023-05-09T10:04:10.074Z,76.06
2023-05-09T10:07:06.213Z,76.20
2023-05-09T10:09:55.032Z,73.69
2023-05-09T10:12:42.093Z,72.34
2023-05-09T10:15:35.649Z,70.79
2023-05-09T10:18:32.301Z,70.16
2023-05-09T10:21:22.011Z,68.18
2023-05-09T10:24:02.144Z,67.12
2023-05-09T10:26:56.058Z,67.50
2023-05-09T10:29:47.974Z,68.52
2023-05-09T10:32:54.261Z,69.66
2023-05-09T10:35:43.030Z,69.36
2023-05-09T10:38:37.025Z,70.36
2023-05-09T10:41:19.015Z,72.29
2023-05-09T10:44:06.020Z,72.41
2023-05-09T10:46:47.142Z,76.04
2023-05-09T10:49:36.949Z,76.34
2023-05-09T10:52:17.408Z,79.26
2023-05-09T10:55:16.206Z,80.22
2023-05-09T10:57:56.354Z,81.55
2023-05-09T11:00:42.999Z,80.42
2023-05-09T11:03:27.464Z,78.46
2023-05-09T11:06:13.975Z,78.31
2023-05-09T11:08:54.474Z,79.27
2023-05-09T11:11:40.941Z,77.91
2023-05-09T11:14:39.953Z,78.16
2023-05-09T11:17:34.197Z,73.91
2023-05-09T11:20:20.953Z,74.85
2023-05-09T11:23:06.205Z,74.06
2023-05-09T11:25:54.944Z,76.87
2023-05-09T11:28:40.031Z,77.49
2023-05-09T11:31:26.970Z,79.77
2023-05-09T11:34:09.297Z,79.53
2023-05-09T11:36:56.123Z,81.44
2023-05-09T11:39:36.008Z,83.63
2023-05-09T11:42:23.895Z,84.33
2023-05-09T11:45:12.024Z,84.84
2023-05-09T11:47:59.923Z,85.18
2023-05-09T11:50:47.953Z,85.81
2023-05-09T11:53:28.347Z,86.65
2023-05-09T11:56:18.918Z,86.38
2023-05-09T11:59:05.980Z,86.81
2023-05-09T12:01:45.885Z,85.94
2023-05-09T12:04:29.262Z,86.44
2023-05-09T12:07:15.911Z,87.33
2023-05-09T12:09:56.342Z,87.46
2023-05-09T12:12:42.880Z,87.72
2023-05-09T12:15:30.890Z,87.42
2023-05-09T12:18:13.106Z,86.42
2023-05-09T12:20:59.843Z,86.20
2023-05-09T12:23:43.014Z,85.80
2023-05-09T12:26:29.858Z,86.16
2023-05-09T12:29:10.008Z,86.98
2023-05-09T12:31:56.882Z,87.24
2023-05-09T12:34:38.054Z,87.08
2023-05-09T12:37:25.828Z,88.19
2023-05-09T12:40:22.014Z,88.26
2023-05-09T12:43:03.616Z,88.86
2023-05-09T12:45:52.793Z,89.67
2023-05-09T12:48:38.283Z,90.42
2023-05-09T12:51:24.889Z,88.98
2023-05-09T12:54:11.847Z,87.88
2023-05-09T12:56:56.943Z,87.53
2023-05-09T12:59:43.808Z,88.18
2023-05-09T13:02:30.915Z,88.05
2023-05-09T13:05:19.172Z,89.35
2023-05-09T13:08:09.831Z,88.72
2023-05-09T13:10:53.640Z,88.15
2023-05-09T13:13:42.977Z,86.37
2023-05-09T13:16:29.838Z,82.73
2023-05-09T13:19:09.878Z,80.79
2023-05-09T13:21:56.789Z,78.75
2023-05-09T13:24:36.932Z,76.42
2023-05-09T13:27:23.845Z,75.28
2023-05-09T13:30:03.967Z,74.58
2023-05-09T13:32:50.810Z,73.49
2023-05-09T13:35:30.963Z,73.29
2023-05-09T13:38:17.802Z,72.18
2023-05-09T13:41:04.893Z,72.13
2023-05-09T13:43:46.811Z,72.54
2023-05-09T13:46:27.203Z,75.92
2023-05-09T13:49:13.801Z,78.94
2023-05-09T13:52:03.789Z,79.44
2023-05-09T13:54:50.799Z,79.03
2023-05-09T13:57:31.114Z,78.13
2023-05-09T14:00:17.924Z,77.64
2023-05-09T14:02:58.156Z,76.91
2023-05-09T14:05:44.796Z,75.83
2023-05-09T14:08:25.157Z,75.74
2023-05-09T14:11:12.733Z,72.68
2023-05-09T14:13:53.189Z,73.12
2023-05-09T14:16:39.774Z,74.71
2023-05-09T14:19:20.374Z,75.55
2023-05-09T14:22:06.777Z,74.53
2023-05-09T14:24:47.223Z,74.62
2023-05-09T14:27:33.782Z,73.82
2023-05-09T14:30:20.766Z,73.05
2023-05-09T14:33:00.909Z,74.13
2023-05-09T14:35:47.748Z,74.93
2023-05-09T14:38:41.760Z,74.84
2023-05-09T14:41:28.878Z,73.74
2023-05-09T14:44:08.712Z,74.78
2023-05-09T14:46:49.295Z,74.42
2023-05-09T14:49:35.678Z,73.59
2023-05-09T14:52:24.673Z,73.43
2023-05-09T14:55:06.285Z,72.25
2023-05-09T14:57:52.717Z,71.97
2023-05-09T15:00:34.115Z,71.12
2023-05-09T15:03:20.635Z,71.31
2023-05-09T15:06:00.821Z,71.15
2023-05-09T15:08:47.703Z,71.44
2023-05-09T15:11:28.745Z,71.92
2023-05-09T15:14:17.657Z,70.19
2023-05-09T15:17:01.294Z,71.11
2023-05-09T15:19:48.653Z,70.70
2023-05-09T15:22:40.595Z,71.04
2023-05-09T15:25:28.685Z,71.97
2023-05-09T15:28:08.795Z,70.61
2023-05-09T15:30:55.676Z,71.06
2023-05-09T15:33:35.780Z,71.63
2023-05-09T15:36:22.669Z,72.19
2023-05-09T15:39:09.779Z,71.71
2023-05-09T15:41:49.586Z,70.31
2023-05-09T15:44:30.118Z,69.12
2023-05-09T15:47:16.639Z,67.84
2023-05-09T15:50:03.724Z,68.17
2023-05-09T15:52:50.654Z,67.63
2023-05-09T15:55:38.597Z,69.08
2023-05-09T15:58:25.671Z,69.43
2023-05-09T16:01:07.958Z,70.76
2023-05-09T16:03:54.809Z,71.71
2023-05-09T16:06:35.399Z,71.95
2023-05-09T16:09:22.582Z,72.35
2023-05-09T16:12:03.358Z,73.62
2023-05-09T16:14:50.718Z,73.14
2023-05-09T16:17:33.835Z,73.57
2023-05-09T16:20:21.577Z,73.71
2023-05-09T16:23:08.653Z,72.73
2023-05-09T16:25:49.882Z,77.68
2023-05-09T16:28:36.562Z,73.08
2023-05-09T16:31:23.628Z,72.05
2023-05-09T16:34:03.969Z,71.59
2023-05-09T16:36:51.651Z,71.91
2023-05-09T16:39:45.596Z,70.75
2023-05-09T16:42:25.986Z,71.57
2023-05-09T16:45:12.659Z,71.94
2023-05-09T16:47:54.160Z,69.81
2023-05-09T16:50:40.564Z,70.52
2023-05-09T16:53:22.940Z,70.01
2023-05-09T16:56:09.549Z,67.67
2023-05-09T16:58:51.491Z,75.58
2023-05-09T17:01:32.026Z,71.85
2023-05-09T17:04:18.564Z,70.52
2023-05-09T17:06:59.025Z,72.03
2023-05-09T17:09:45.585Z,71.27
2023-05-09T17:12:34.554Z,71.31
2023-05-09T17:15:15.850Z,74.23
2023-05-09T17:18:02.568Z,73.17
2023-05-09T17:20:49.470Z,73.64
2023-05-09T17:23:29.893Z,72.75
2023-05-09T17:26:16.497Z,71.88
2023-05-09T17:28:57.277Z,72.22
2023-05-09T17:31:44.557Z,72.45
2023-05-09T17:34:24.895Z,72.36
2023-05-09T17:37:15.507Z,72.44
2023-05-09T17:40:10.481Z,73.86
2023-05-09T17:42:50.797Z,73.68
2023-05-09T17:45:37.459Z,74.19
2023-05-09T17:48:18.306Z,74.99
2023-05-09T17:51:05.470Z,75.15
2023-05-09T17:53:46.896Z,75.36
2023-05-09T17:56:33.489Z,75.47
2023-05-09T17:59:13.854Z,75.61
2023-05-09T18:02:01.650Z,75.90
2023-05-09T18:04:48.901Z,75.39
2023-05-09T18:07:29.466Z,75.55
2023-05-09T18:10:17.649Z,76.07
2023-05-09T18:12:57.615Z,75.52
2023-05-09T18:15:44.464Z,76.24
2023-05-09T18:18:24.559Z,76.50
2023-05-09T18:21:12.464Z,76.65
2023-05-09T18:23:52.840Z,76.92
2023-05-09T18:26:39.437Z,76.79
2023-05-09T18:29:19.709Z,77.04
2023-05-09T18:32:06.373Z,76.89
2023-05-09T18:34:55.384Z,76.96
2023-05-09T18:37:43.418Z,76.20
2023-05-09T18:40:30.724Z,76.52
2023-05-09T18:43:10.365Z,76.30
2023-05-09T18:45:52.022Z,77.05
2023-05-09T18:48:38.433Z,76.48
2023-05-09T18:51:19.545Z,76.66
2023-05-09T18:54:08.466Z,77.00
2023-05-09T18:56:49.672Z,77.59
2023-05-09T18:59:36.413Z,77.68
2023-05-09T19:02:17.049Z,77.91
2023-05-09T19:05:03.361Z,78.61
2023-05-09T19:07:51.701Z,78.87
2023-05-09T19:10:31.434Z,78.86
2023-05-09T19:13:18.469Z,79.23
2023-05-09T19:16:06.380Z,79.37
2023-05-09T19:18:47.404Z,80.35
2023-05-09T19:21:35.352Z,80.57
2023-05-09T19:24:15.712Z,81.48
2023-05-09T19:27:02.324Z,80.98
2023-05-09T19:42:12.135Z,86.17
2023-05-09T19:45:00.194Z,85.69
2023-05-09T19:47:40.267Z,86.41
2023-05-09T19:50:28.061Z,86.03
2023-05-09T19:53:08.255Z,85.52
2023-05-09T19:55:55.094Z,85.79
2023-05-09T19:58:35.170Z,85.03
2023-05-09T20:01:24.104Z,85.42
2023-05-09T20:04:04.354Z,85.36
2023-05-09T20:06:52.047Z,85.68
2023-05-09T20:09:40.092Z,86.19
2023-05-09T20:12:29.920Z,86.67
2023-05-09T20:15:10.262Z,86.49
2023-05-09T20:17:57.016Z,86.68
2023-05-09T20:20:44.041Z,86.91
2023-05-09T20:23:31.062Z,86.75
2023-05-09T20:26:11.261Z,86.95
2023-05-09T20:28:58.018Z,86.81
2023-05-09T20:31:38.168Z,87.89
2023-05-09T20:34:26.011Z,87.87
2023-05-09T20:37:06.275Z,88.71
2023-05-09T20:39:53.004Z,88.56
2023-05-09T20:42:33.090Z,89.23
2023-05-09T20:45:19.967Z,89.07
2023-05-09T20:48:01.812Z,89.41
2023-05-09T20:50:49.040Z,89.30
2023-05-09T20:53:38.044Z,89.60
2023-05-09T20:56:19.594Z,89.45
2023-05-09T20:59:08.059Z,89.83
2023-05-09T21:01:55.057Z,89.90
2023-05-09T21:04:35.135Z,89.13
2023-05-09T21:07:26.026Z,89.26
2023-05-09T21:10:06.116Z,89.31
2023-05-09T21:12:53.034Z,89.48
2023-05-09T21:15:33.069Z,89.44
2023-05-09T21:18:19.961Z,89.12
2023-05-09T21:21:00.027Z,89.29
2023-05-09T21:23:46.972Z,89.56
2023-05-09T21:26:27.049Z,89.48
2023-05-09T21:29:13.954Z,89.22
2023-05-09T21:31:54.072Z,89.73
2023-05-09T21:34:40.924Z,90.28
2023-05-09T21:37:21.020Z,90.24
2023-05-09T21:40:08.976Z,90.50
2023-05-09T21:42:49.058Z,90.41
2023-05-09T21:45:35.982Z,90.37
2023-05-09T21:48:16.193Z,90.25
2023-05-09T21:51:02.925Z,89.94
2023-05-09T21:53:49.892Z,89.94
2023-05-09T21:56:36.914Z,89.72
2023-05-09T21:59:20.775Z,89.74
2023-05-09T22:02:08.018Z,89.66
2023-05-09T22:04:48.193Z,89.82
2023-05-09T22:07:34.937Z,89.65
2023-05-09T22:10:15.303Z,89.34
2023-05-09T22:13:01.939Z,89.56
2023-05-09T22:15:48.916Z,89.01
2023-05-09T22:18:29.838Z,88.87
2023-05-09T22:21:16.906Z,88.90
2023-05-09T22:23:57.342Z,88.84
2023-05-09T22:26:43.869Z,88.82
2023-05-09T22:29:24.394Z,89.09
2023-05-09T22:32:10.912Z,88.59
2023-05-09T22:34:58.136Z,88.85
2023-05-09T22:37:37.885Z,88.61
2023-05-09T22:40:33.827Z,88.09
2023-05-09T22:43:20.868Z,87.96
2023-05-09T22:46:01.024Z,87.90
2023-05-09T22:48:47.883Z,87.77
2023-05-09T22:51:34.825Z,87.82
2023-05-09T22:54:17.937Z,87.72
2023-05-09T22:57:04.801Z,88.37
2023-05-09T22:59:51.825Z,88.79
2023-05-09T23:02:32.011Z,89.08
2023-05-09T23:05:18.840Z,89.85
2023-05-09T23:07:58.923Z,89.62
2023-05-09T23:10:45.787Z,90.23
2023-05-09T23:13:26.098Z,90.72
2023-05-09T23:16:12.836Z,90.87
2023-05-09T23:18:52.950Z,91.64
2023-05-09T23:21:39.836Z,91.92
2023-05-09T23:24:19.860Z,92.49
2023-05-09T23:27:06.796Z,92.80
2023-05-09T23:29:46.916Z,92.76
2023-05-09T23:32:33.782Z,93.42
2023-05-09T23:35:13.890Z,93.32
2023-05-09T23:38:00.767Z,93.83
2023-05-09T23:40:57.780Z,94.97
2023-05-09T23:43:44.794Z,95.19
2023-05-09T23:46:24.983Z,95.12
2023-05-09T23:49:11.798Z,95.91
2023-05-09T23:51:51.878Z,96.03
2023-05-09T23:54:38.750Z,96.45
2023-05-09T23:57:18.848Z,97.53
